Аэропорт
Астана (UACC)

 UACC / TSE
ЗЦ Центральная Азия
Астана (UACC)
Астана (UACC)
 51.02220, 71.46690  / 1165 ft

 UACC 161630Z 20010MPS 9999 OVC015 01/M00 Q1010 R22/2///55 NOSIG RMK QFE726/0968
 UACC 160703Z 1607/1706 20007MPS 9999 SCT010 BKN030 TXM00/1615Z TNM04/1702Z TEMPO 1607/1614 21010MPS 5000 -SN FEW007 BKN015 FM161400 20008MPS 3100 SN SCT008 BKN015 TEMPO 1614/1622 1000 SHSNRA FEW004 BKN011CB TEMPO 1622/1706 21007G12MPS 1000 SHSNRA FEW004 BKN011CB
UACC_aip_1708
показать схемы
Название сценария Тип сценария Flight Simulator 9 Flight Simulator X Prepar3D v2 Prepar3D v3 Prepar3D v4 xPlane
Лёгкий сценарий аэропорта г. Астаны бесплатный


2019 © VATRUS division (Privacy Policy)